sensor_id;sensor_type;location;lat;lon;timestamp;P1;durP1;ratioP1;P2;durP2;ratioP2
39256;SDS011;67272;48.066;11.038;2023-07-13T00:01:17;6.72;;;5.55;;
39256;SDS011;67272;48.066;11.038;2023-07-13T00:03:50;6.43;;;5.82;;
39256;SDS011;67272;48.066;11.038;2023-07-13T00:06:16;6.28;;;5.68;;
39256;SDS011;67272;48.066;11.038;2023-07-13T00:08:44;6.45;;;5.85;;
39256;SDS011;67272;48.066;11.038;2023-07-13T00:11:15;5.68;;;5.18;;
39256;SDS011;67272;48.066;11.038;2023-07-13T00:13:42;6.05;;;5.45;;
39256;SDS011;67272;48.066;11.038;2023-07-13T00:16:12;5.75;;;5.28;;
39256;SDS011;67272;48.066;11.038;2023-07-13T00:18:39;6.43;;;5.93;;
39256;SDS011;67272;48.066;11.038;2023-07-13T00:21:06;8.35;;;6.00;;
39256;SDS011;67272;48.066;11.038;2023-07-13T00:23:42;6.53;;;5.50;;
39256;SDS011;67272;48.066;11.038;2023-07-13T00:26:09;6.75;;;5.80;;
39256;SDS011;67272;48.066;11.038;2023-07-13T00:28:39;6.28;;;5.68;;
39256;SDS011;67272;48.066;11.038;2023-07-13T00:31:07;6.10;;;5.53;;
39256;SDS011;67272;48.066;11.038;2023-07-13T00:33:37;6.22;;;5.70;;
39256;SDS011;67272;48.066;11.038;2023-07-13T00:36:12;5.70;;;5.22;;
39256;SDS011;67272;48.066;11.038;2023-07-13T00:38:39;6.72;;;5.55;;
39256;SDS011;67272;48.066;11.038;2023-07-13T00:41:10;6.05;;;5.47;;
39256;SDS011;67272;48.066;11.038;2023-07-13T00:43:42;6.13;;;5.63;;
39256;SDS011;67272;48.066;11.038;2023-07-13T00:46:29;6.53;;;5.65;;
39256;SDS011;67272;48.066;11.038;2023-07-13T00:48:56;6.05;;;5.55;;
39256;SDS011;67272;48.066;11.038;2023-07-13T00:51:30;6.60;;;5.75;;
39256;SDS011;67272;48.066;11.038;2023-07-13T00:54:02;7.20;;;6.60;;
39256;SDS011;67272;48.066;11.038;2023-07-13T00:56:29;6.10;;;5.60;;
39256;SDS011;67272;48.066;11.038;2023-07-13T00:58:59;6.47;;;5.88;;
39256;SDS011;67272;48.066;11.038;2023-07-13T01:01:26;6.53;;;5.93;;
39256;SDS011;67272;48.066;11.038;2023-07-13T01:03:55;6.05;;;5.55;;
39256;SDS011;67272;48.066;11.038;2023-07-13T01:06:25;6.43;;;5.82;;
39256;SDS011;67272;48.066;11.038;2023-07-13T01:08:51;6.93;;;5.82;;
39256;SDS011;67272;48.066;11.038;2023-07-13T01:11:21;5.97;;;5.47;;
39256;SDS011;67272;48.066;11.038;2023-07-13T01:13:54;6.82;;;6.13;;
39256;SDS011;67272;48.066;11.038;2023-07-13T01:16:27;5.65;;;5.15;;
39256;SDS011;67272;48.066;11.038;2023-07-13T01:18:55;5.77;;;5.27;;
39256;SDS011;67272;48.066;11.038;2023-07-13T01:21:29;5.32;;;4.82;;
39256;SDS011;67272;48.066;11.038;2023-07-13T01:23:58;5.10;;;4.60;;
39256;SDS011;67272;48.066;11.038;2023-07-13T01:26:27;4.85;;;4.35;;
39256;SDS011;67272;48.066;11.038;2023-07-13T01:28:54;5.60;;;5.10;;
39256;SDS011;67272;48.066;11.038;2023-07-13T01:31:27;5.80;;;4.63;;
39256;SDS011;67272;48.066;11.038;2023-07-13T01:33:57;5.18;;;4.78;;
39256;SDS011;67272;48.066;11.038;2023-07-13T01:36:23;5.50;;;5.00;;
39256;SDS011;67272;48.066;11.038;2023-07-13T01:38:49;5.88;;;5.25;;
39256;SDS011;67272;48.066;11.038;2023-07-13T01:41:18;5.28;;;4.78;;
39256;SDS011;67272;48.066;11.038;2023-07-13T01:43:45;5.47;;;5.03;;
39256;SDS011;67272;48.066;11.038;2023-07-13T01:46:11;5.70;;;5.20;;
39256;SDS011;67272;48.066;11.038;2023-07-13T01:48:39;5.70;;;5.20;;
39256;SDS011;67272;48.066;11.038;2023-07-13T01:51:05;5.90;;;4.90;;
39256;SDS011;67272;48.066;11.038;2023-07-13T01:53:34;5.43;;;4.93;;
39256;SDS011;67272;48.066;11.038;2023-07-13T01:56:04;5.22;;;4.82;;
39256;SDS011;67272;48.066;11.038;2023-07-13T01:58:30;5.65;;;5.03;;
39256;SDS011;67272;48.066;11.038;2023-07-13T02:00:57;7.00;;;5.88;;
39256;SDS011;67272;48.066;11.038;2023-07-13T02:03:26;7.65;;;5.80;;
39256;SDS011;67272;48.066;11.038;2023-07-13T02:06:01;7.45;;;5.63;;
39256;SDS011;67272;48.066;11.038;2023-07-13T02:08:28;5.82;;;5.22;;
39256;SDS011;67272;48.066;11.038;2023-07-13T02:10:55;7.60;;;5.50;;
39256;SDS011;67272;48.066;11.038;2023-07-13T02:13:24;6.90;;;4.47;;
39256;SDS011;67272;48.066;11.038;2023-07-13T02:15:56;5.80;;;4.15;;
39256;SDS011;67272;48.066;11.038;2023-07-13T02:18:22;4.70;;;3.75;;
39256;SDS011;67272;48.066;11.038;2023-07-13T02:20:52;3.75;;;3.30;;
39256;SDS011;67272;48.066;11.038;2023-07-13T02:23:18;5.03;;;3.67;;
39256;SDS011;67272;48.066;11.038;2023-07-13T02:25:46;5.10;;;3.33;;
39256;SDS011;67272;48.066;11.038;2023-07-13T02:28:15;3.22;;;2.75;;
39256;SDS011;67272;48.066;11.038;2023-07-13T02:30:42;3.50;;;2.58;;
39256;SDS011;67272;48.066;11.038;2023-07-13T02:33:08;5.07;;;2.65;;
39256;SDS011;67272;48.066;11.038;2023-07-13T02:35:35;2.85;;;2.53;;
39256;SDS011;67272;48.066;11.038;2023-07-13T02:38:04;2.70;;;2.38;;
39256;SDS011;67272;48.066;11.038;2023-07-13T02:40:30;2.95;;;2.70;;
39256;SDS011;67272;48.066;11.038;2023-07-13T02:42:59;3.63;;;2.95;;
39256;SDS011;67272;48.066;11.038;2023-07-13T02:45:37;3.05;;;2.75;;
39256;SDS011;67272;48.066;11.038;2023-07-13T02:48:04;3.10;;;2.75;;
39256;SDS011;67272;48.066;11.038;2023-07-13T02:50:32;3.92;;;3.03;;
39256;SDS011;67272;48.066;11.038;2023-07-13T02:53:01;3.83;;;2.70;;
39256;SDS011;67272;48.066;11.038;2023-07-13T02:55:31;3.42;;;3.13;;
39256;SDS011;67272;48.066;11.038;2023-07-13T02:58:00;3.50;;;3.10;;
39256;SDS011;67272;48.066;11.038;2023-07-13T03:00:26;3.30;;;2.97;;
39256;SDS011;67272;48.066;11.038;2023-07-13T03:02:53;4.05;;;3.15;;
39256;SDS011;67272;48.066;11.038;2023-07-13T03:05:22;3.28;;;3.00;;
39256;SDS011;67272;48.066;11.038;2023-07-13T03:07:54;3.65;;;3.22;;
39256;SDS011;67272;48.066;11.038;2023-07-13T03:10:21;3.90;;;3.28;;
39256;SDS011;67272;48.066;11.038;2023-07-13T03:12:52;3.42;;;2.80;;
39256;SDS011;67272;48.066;11.038;2023-07-13T03:15:23;3.80;;;2.90;;
39256;SDS011;67272;48.066;11.038;2023-07-13T03:18:00;3.50;;;3.20;;
39256;SDS011;67272;48.066;11.038;2023-07-13T03:20:26;3.08;;;2.88;;
39256;SDS011;67272;48.066;11.038;2023-07-13T03:22:53;3.35;;;3.00;;
39256;SDS011;67272;48.066;11.038;2023-07-13T03:25:20;3.53;;;2.67;;
39256;SDS011;67272;48.066;11.038;2023-07-13T03:27:49;4.63;;;3.20;;
39256;SDS011;67272;48.066;11.038;2023-07-13T03:30:19;3.67;;;2.70;;
39256;SDS011;67272;48.066;11.038;2023-07-13T03:32:49;2.92;;;2.70;;
39256;SDS011;67272;48.066;11.038;2023-07-13T03:35:16;3.30;;;3.00;;
39256;SDS011;67272;48.066;11.038;2023-07-13T03:37:43;3.10;;;2.90;;
39256;SDS011;67272;48.066;11.038;2023-07-13T03:40:15;3.10;;;2.80;;
39256;SDS011;67272;48.066;11.038;2023-07-13T03:42:43;3.05;;;2.75;;
39256;SDS011;67272;48.066;11.038;2023-07-13T03:45:11;4.32;;;2.90;;
39256;SDS011;67272;48.066;11.038;2023-07-13T03:47:38;3.13;;;2.83;;
39256;SDS011;67272;48.066;11.038;2023-07-13T03:50:07;3.10;;;2.80;;
39256;SDS011;67272;48.066;11.038;2023-07-13T03:52:43;2.80;;;2.60;;
39256;SDS011;67272;48.066;11.038;2023-07-13T03:55:14;3.40;;;3.10;;
39256;SDS011;67272;48.066;11.038;2023-07-13T03:57:41;2.80;;;2.60;;
39256;SDS011;67272;48.066;11.038;2023-07-13T04:00:14;3.75;;;2.97;;
39256;SDS011;67272;48.066;11.038;2023-07-13T04:02:53;2.90;;;2.67;;
39256;SDS011;67272;48.066;11.038;2023-07-13T04:05:22;3.03;;;2.70;;
39256;SDS011;67272;48.066;11.038;2023-07-13T04:07:48;3.58;;;3.22;;
39256;SDS011;67272;48.066;11.038;2023-07-13T04:10:15;4.57;;;3.55;;
39256;SDS011;67272;48.066;11.038;2023-07-13T04:12:41;3.72;;;3.42;;
39256;SDS011;67272;48.066;11.038;2023-07-13T04:15:08;3.50;;;3.20;;
39256;SDS011;67272;48.066;11.038;2023-07-13T04:17:34;4.15;;;3.63;;
39256;SDS011;67272;48.066;11.038;2023-07-13T04:20:01;3.60;;;3.30;;
39256;SDS011;67272;48.066;11.038;2023-07-13T04:22:27;3.97;;;3.67;;
39256;SDS011;67272;48.066;11.038;2023-07-13T04:24:53;4.18;;;3.70;;
39256;SDS011;67272;48.066;11.038;2023-07-13T04:27:22;4.40;;;4.00;;
39256;SDS011;67272;48.066;11.038;2023-07-13T04:29:49;4.85;;;4.30;;
39256;SDS011;67272;48.066;11.038;2023-07-13T04:32:15;4.40;;;4.00;;
39256;SDS011;67272;48.066;11.038;2023-07-13T04:34:41;4.90;;;4.40;;
39256;SDS011;67272;48.066;11.038;2023-07-13T04:37:08;5.10;;;4.60;;
39256;SDS011;67272;48.066;11.038;2023-07-13T04:39:37;5.03;;;4.45;;
39256;SDS011;67272;48.066;11.038;2023-07-13T04:42:03;5.90;;;4.45;;
39256;SDS011;67272;48.066;11.038;2023-07-13T04:44:33;5.78;;;5.03;;
39256;SDS011;67272;48.066;11.038;2023-07-13T04:46:59;4.90;;;4.40;;
39256;SDS011;67272;48.066;11.038;2023-07-13T04:49:29;5.50;;;4.60;;
39256;SDS011;67272;48.066;11.038;2023-07-13T04:51:55;5.43;;;4.93;;
39256;SDS011;67272;48.066;11.038;2023-07-13T04:54:21;5.43;;;4.88;;
39256;SDS011;67272;48.066;11.038;2023-07-13T04:56:48;5.60;;;4.78;;
39256;SDS011;67272;48.066;11.038;2023-07-13T04:59:14;4.97;;;4.53;;
39256;SDS011;67272;48.066;11.038;2023-07-13T05:01:41;5.07;;;4.45;;
39256;SDS011;67272;48.066;11.038;2023-07-13T05:04:07;4.95;;;4.45;;
39256;SDS011;67272;48.066;11.038;2023-07-13T05:06:33;4.90;;;4.25;;
39256;SDS011;67272;48.066;11.038;2023-07-13T05:08:59;4.53;;;4.13;;
39256;SDS011;67272;48.066;11.038;2023-07-13T05:11:25;4.85;;;4.35;;
39256;SDS011;67272;48.066;11.038;2023-07-13T05:13:52;4.85;;;4.10;;
39256;SDS011;67272;48.066;11.038;2023-07-13T05:16:18;5.57;;;4.50;;
39256;SDS011;67272;48.066;11.038;2023-07-13T05:18:45;5.05;;;4.20;;
39256;SDS011;67272;48.066;11.038;2023-07-13T05:21:11;5.20;;;4.30;;
39256;SDS011;67272;48.066;11.038;2023-07-13T05:23:38;4.70;;;4.30;;
39256;SDS011;67272;48.066;11.038;2023-07-13T05:26:07;4.30;;;3.90;;
39256;SDS011;67272;48.066;11.038;2023-07-13T05:28:33;5.18;;;4.15;;
39256;SDS011;67272;48.066;11.038;2023-07-13T05:30:59;4.65;;;4.25;;
39256;SDS011;67272;48.066;11.038;2023-07-13T05:33:26;5.03;;;4.45;;
39256;SDS011;67272;48.066;11.038;2023-07-13T05:35:52;5.95;;;4.82;;
39256;SDS011;67272;48.066;11.038;2023-07-13T05:38:18;4.80;;;4.40;;
39256;SDS011;67272;48.066;11.038;2023-07-13T05:40:46;5.43;;;4.97;;
39256;SDS011;67272;48.066;11.038;2023-07-13T05:43:15;4.88;;;4.28;;
39256;SDS011;67272;48.066;11.038;2023-07-13T05:45:41;5.18;;;4.72;;
39256;SDS011;67272;48.066;11.038;2023-07-13T05:48:08;4.65;;;4.20;;
39256;SDS011;67272;48.066;11.038;2023-07-13T05:50:34;4.35;;;3.95;;
39256;SDS011;67272;48.066;11.038;2023-07-13T05:53:00;5.07;;;3.95;;
39256;SDS011;67272;48.066;11.038;2023-07-13T05:55:26;4.40;;;4.00;;
39256;SDS011;67272;48.066;11.038;2023-07-13T05:57:53;4.72;;;3.70;;
39256;SDS011;67272;48.066;11.038;2023-07-13T06:00:19;4.28;;;3.88;;
39256;SDS011;67272;48.066;11.038;2023-07-13T06:02:45;4.00;;;3.60;;
39256;SDS011;67272;48.066;11.038;2023-07-13T06:05:12;4.18;;;3.67;;
39256;SDS011;67272;48.066;11.038;2023-07-13T06:07:38;4.70;;;3.35;;
39256;SDS011;67272;48.066;11.038;2023-07-13T06:10:04;4.68;;;4.03;;
39256;SDS011;67272;48.066;11.038;2023-07-13T06:12:31;4.13;;;3.72;;
39256;SDS011;67272;48.066;11.038;2023-07-13T06:14:57;4.38;;;3.80;;
39256;SDS011;67272;48.066;11.038;2023-07-13T06:17:24;3.80;;;3.50;;
39256;SDS011;67272;48.066;11.038;2023-07-13T06:19:50;4.68;;;3.58;;
39256;SDS011;67272;48.066;11.038;2023-07-13T06:22:16;3.72;;;3.35;;
39256;SDS011;67272;48.066;11.038;2023-07-13T06:24:42;3.75;;;3.40;;
39256;SDS011;67272;48.066;11.038;2023-07-13T06:27:09;6.00;;;3.67;;
39256;SDS011;67272;48.066;11.038;2023-07-13T06:29:35;3.90;;;3.50;;
39256;SDS011;67272;48.066;11.038;2023-07-13T06:32:01;4.70;;;3.10;;
39256;SDS011;67272;48.066;11.038;2023-07-13T06:34:28;5.15;;;3.53;;
39256;SDS011;67272;48.066;11.038;2023-07-13T06:36:54;3.35;;;2.95;;
39256;SDS011;67272;48.066;11.038;2023-07-13T06:39:20;4.25;;;3.30;;
39256;SDS011;67272;48.066;11.038;2023-07-13T06:41:46;3.95;;;2.90;;
39256;SDS011;67272;48.066;11.038;2023-07-13T06:44:13;3.00;;;2.63;;
39256;SDS011;67272;48.066;11.038;2023-07-13T06:46:39;3.92;;;2.60;;
39256;SDS011;67272;48.066;11.038;2023-07-13T06:49:05;2.83;;;2.58;;
39256;SDS011;67272;48.066;11.038;2023-07-13T06:51:31;4.28;;;2.55;;
39256;SDS011;67272;48.066;11.038;2023-07-13T06:53:58;4.35;;;2.63;;
39256;SDS011;67272;48.066;11.038;2023-07-13T06:56:24;5.13;;;2.75;;
39256;SDS011;67272;48.066;11.038;2023-07-13T06:58:50;4.07;;;2.67;;
39256;SDS011;67272;48.066;11.038;2023-07-13T07:01:16;3.63;;;2.97;;
39256;SDS011;67272;48.066;11.038;2023-07-13T07:03:43;4.30;;;3.28;;
39256;SDS011;67272;48.066;11.038;2023-07-13T07:06:13;4.35;;;3.38;;
39256;SDS011;67272;48.066;11.038;2023-07-13T07:08:40;4.05;;;2.95;;
39256;SDS011;67272;48.066;11.038;2023-07-13T07:11:13;3.22;;;2.92;;
39256;SDS011;67272;48.066;11.038;2023-07-13T07:13:40;3.50;;;3.20;;
39256;SDS011;67272;48.066;11.038;2023-07-13T07:16:06;4.43;;;3.10;;
39256;SDS011;67272;48.066;11.038;2023-07-13T07:18:33;3.20;;;2.90;;
39256;SDS011;67272;48.066;11.038;2023-07-13T07:21:00;5.28;;;3.30;;
39256;SDS011;67272;48.066;11.038;2023-07-13T07:23:26;3.58;;;2.33;;
39256;SDS011;67272;48.066;11.038;2023-07-13T07:25:53;3.22;;;2.55;;
39256;SDS011;67272;48.066;11.038;2023-07-13T07:28:19;3.10;;;2.80;;
39256;SDS011;67272;48.066;11.038;2023-07-13T07:30:46;4.55;;;2.92;;
39256;SDS011;67272;48.066;11.038;2023-07-13T07:33:12;4.45;;;2.60;;
39256;SDS011;67272;48.066;11.038;2023-07-13T07:35:38;5.05;;;2.80;;
39256;SDS011;67272;48.066;11.038;2023-07-13T07:38:05;3.50;;;3.03;;
39256;SDS011;67272;48.066;11.038;2023-07-13T07:40:31;3.08;;;2.78;;
39256;SDS011;67272;48.066;11.038;2023-07-13T07:42:58;4.35;;;2.92;;
39256;SDS011;67272;48.066;11.038;2023-07-13T07:45:24;3.00;;;2.72;;
39256;SDS011;67272;48.066;11.038;2023-07-13T07:47:50;3.95;;;3.10;;
39256;SDS011;67272;48.066;11.038;2023-07-13T07:50:16;4.32;;;3.30;;
39256;SDS011;67272;48.066;11.038;2023-07-13T07:52:44;3.17;;;2.90;;
39256;SDS011;67272;48.066;11.038;2023-07-13T07:55:11;3.40;;;3.00;;
39256;SDS011;67272;48.066;11.038;2023-07-13T07:57:37;3.88;;;3.17;;
39256;SDS011;67272;48.066;11.038;2023-07-13T08:00:03;4.10;;;2.65;;
39256;SDS011;67272;48.066;11.038;2023-07-13T08:02:39;3.85;;;2.70;;
39256;SDS011;67272;48.066;11.038;2023-07-13T08:05:09;4.13;;;2.83;;
39256;SDS011;67272;48.066;11.038;2023-07-13T08:07:38;3.95;;;2.80;;
39256;SDS011;67272;48.066;11.038;2023-07-13T08:10:06;3.83;;;2.95;;
39256;SDS011;67272;48.066;11.038;2023-07-13T08:12:36;3.45;;;2.78;;
39256;SDS011;67272;48.066;11.038;2023-07-13T08:15:03;3.35;;;2.83;;
39256;SDS011;67272;48.066;11.038;2023-07-13T08:17:29;3.95;;;2.47;;
39256;SDS011;67272;48.066;11.038;2023-07-13T08:19:56;3.22;;;2.72;;
39256;SDS011;67272;48.066;11.038;2023-07-13T08:22:22;3.53;;;2.80;;
39256;SDS011;67272;48.066;11.038;2023-07-13T08:24:48;4.28;;;3.00;;
39256;SDS011;67272;48.066;11.038;2023-07-13T08:27:24;2.88;;;2.58;;
39256;SDS011;67272;48.066;11.038;2023-07-13T08:29:50;3.00;;;2.72;;
39256;SDS011;67272;48.066;11.038;2023-07-13T08:32:18;3.70;;;2.75;;
39256;SDS011;67272;48.066;11.038;2023-07-13T08:34:44;3.50;;;2.67;;
39256;SDS011;67272;48.066;11.038;2023-07-13T08:37:11;3.13;;;2.65;;
39256;SDS011;67272;48.066;11.038;2023-07-13T08:39:37;5.72;;;2.92;;
39256;SDS011;67272;48.066;11.038;2023-07-13T08:42:10;2.85;;;2.58;;
39256;SDS011;67272;48.066;11.038;2023-07-13T08:47:04;3.95;;;2.80;;
39256;SDS011;67272;48.066;11.038;2023-07-13T08:49:31;2.78;;;2.58;;
39256;SDS011;67272;48.066;11.038;2023-07-13T08:54:30;6.80;;;3.95;;
39256;SDS011;67272;48.066;11.038;2023-07-13T08:57:02;2.95;;;2.58;;
39256;SDS011;67272;48.066;11.038;2023-07-13T08:59:30;3.28;;;2.58;;
39256;SDS011;67272;48.066;11.038;2023-07-13T09:04:44;2.50;;;2.30;;
39256;SDS011;67272;48.066;11.038;2023-07-13T09:07:14;4.95;;;2.70;;
39256;SDS011;67272;48.066;11.038;2023-07-13T09:14:46;4.07;;;2.35;;
39256;SDS011;67272;48.066;11.038;2023-07-13T09:17:17;3.35;;;2.65;;
39256;SDS011;67272;48.066;11.038;2023-07-13T09:19:46;3.38;;;3.08;;
39256;SDS011;67272;48.066;11.038;2023-07-13T09:22:15;4.18;;;2.50;;
39256;SDS011;67272;48.066;11.038;2023-07-13T09:27:16;3.83;;;2.40;;
39256;SDS011;67272;48.066;11.038;2023-07-13T09:29:46;4.40;;;2.75;;
39256;SDS011;67272;48.066;11.038;2023-07-13T09:32:14;3.88;;;2.65;;
39256;SDS011;67272;48.066;11.038;2023-07-13T09:34:50;5.68;;;2.63;;
39256;SDS011;67272;48.066;11.038;2023-07-13T09:37:16;2.90;;;2.22;;
39256;SDS011;67272;48.066;11.038;2023-07-13T09:39:44;2.65;;;2.42;;
39256;SDS011;67272;48.066;11.038;2023-07-13T09:44:37;3.05;;;2.53;;
39256;SDS011;67272;48.066;11.038;2023-07-13T09:47:20;7.50;;;2.83;;
39256;SDS011;67272;48.066;11.038;2023-07-13T09:49:50;6.05;;;2.80;;
39256;SDS011;67272;48.066;11.038;2023-07-13T09:52:20;3.83;;;2.22;;
39256;SDS011;67272;48.066;11.038;2023-07-13T09:54:48;3.15;;;2.63;;
39256;SDS011;67272;48.066;11.038;2023-07-13T09:57:16;2.42;;;2.13;;
39256;SDS011;67272;48.066;11.038;2023-07-13T09:59:43;5.00;;;2.60;;
39256;SDS011;67272;48.066;11.038;2023-07-13T10:02:28;4.00;;;2.30;;
39256;SDS011;67272;48.066;11.038;2023-07-13T10:04:56;2.85;;;2.08;;
39256;SDS011;67272;48.066;11.038;2023-07-13T10:07:23;3.72;;;2.25;;
39256;SDS011;67272;48.066;11.038;2023-07-13T10:09:59;3.05;;;2.00;;
39256;SDS011;67272;48.066;11.038;2023-07-13T10:12:26;4.07;;;2.55;;
39256;SDS011;67272;48.066;11.038;2023-07-13T10:14:56;2.65;;;2.45;;
39256;SDS011;67272;48.066;11.038;2023-07-13T10:17:29;3.28;;;1.88;;
39256;SDS011;67272;48.066;11.038;2023-07-13T10:20:03;2.53;;;1.83;;
39256;SDS011;67272;48.066;11.038;2023-07-13T10:24:59;4.88;;;1.85;;
39256;SDS011;67272;48.066;11.038;2023-07-13T10:27:31;3.25;;;2.10;;
39256;SDS011;67272;48.066;11.038;2023-07-13T10:32:28;1.70;;;1.50;;
39256;SDS011;67272;48.066;11.038;2023-07-13T10:34:55;2.08;;;1.80;;
39256;SDS011;67272;48.066;11.038;2023-07-13T10:37:26;2.97;;;2.05;;
39256;SDS011;67272;48.066;11.038;2023-07-13T10:39:53;2.05;;;1.80;;
39256;SDS011;67272;48.066;11.038;2023-07-13T10:44:52;2.50;;;2.05;;
39256;SDS011;67272;48.066;11.038;2023-07-13T10:47:18;3.50;;;2.20;;
39256;SDS011;67272;48.066;11.038;2023-07-13T10:49:45;3.53;;;2.13;;
39256;SDS011;67272;48.066;11.038;2023-07-13T10:54:57;4.47;;;2.00;;
39256;SDS011;67272;48.066;11.038;2023-07-13T10:57:25;2.17;;;1.98;;
39256;SDS011;67272;48.066;11.038;2023-07-13T11:02:27;3.28;;;2.20;;
39256;SDS011;67272;48.066;11.038;2023-07-13T11:04:54;3.33;;;2.00;;
39256;SDS011;67272;48.066;11.038;2023-07-13T11:09:49;3.08;;;1.95;;
39256;SDS011;67272;48.066;11.038;2023-07-13T11:20:10;2.17;;;1.80;;
39256;SDS011;67272;48.066;11.038;2023-07-13T11:22:46;3.15;;;1.50;;
39256;SDS011;67272;48.066;11.038;2023-07-13T11:25:26;1.67;;;1.55;;
39256;SDS011;67272;48.066;11.038;2023-07-13T11:28:29;3.05;;;1.60;;
39256;SDS011;67272;48.066;11.038;2023-07-13T11:33:14;4.18;;;1.70;;
39256;SDS011;67272;48.066;11.038;2023-07-13T11:35:42;3.42;;;1.90;;
39256;SDS011;67272;48.066;11.038;2023-07-13T11:38:12;2.80;;;1.85;;
39256;SDS011;67272;48.066;11.038;2023-07-13T11:40:40;3.35;;;1.80;;
39256;SDS011;67272;48.066;11.038;2023-07-13T11:43:06;2.22;;;1.83;;
39256;SDS011;67272;48.066;11.038;2023-07-13T11:45:33;3.25;;;1.80;;
39256;SDS011;67272;48.066;11.038;2023-07-13T11:47:59;3.40;;;1.90;;
39256;SDS011;67272;48.066;11.038;2023-07-13T11:50:26;5.13;;;2.63;;
39256;SDS011;67272;48.066;11.038;2023-07-13T11:52:53;2.25;;;1.70;;
39256;SDS011;67272;48.066;11.038;2023-07-13T11:55:21;3.40;;;2.00;;
39256;SDS011;67272;48.066;11.038;2023-07-13T11:57:50;1.90;;;1.70;;
39256;SDS011;67272;48.066;11.038;2023-07-13T12:00:18;1.95;;;1.77;;
39256;SDS011;67272;48.066;11.038;2023-07-13T12:02:47;3.03;;;2.00;;
39256;SDS011;67272;48.066;11.038;2023-07-13T12:05:15;3.00;;;1.92;;
39256;SDS011;67272;48.066;11.038;2023-07-13T12:07:43;3.42;;;1.92;;
39256;SDS011;67272;48.066;11.038;2023-07-13T12:12:36;2.20;;;2.00;;
39256;SDS011;67272;48.066;11.038;2023-07-13T12:15:05;2.22;;;1.42;;
39256;SDS011;67272;48.066;11.038;2023-07-13T12:17:32;2.58;;;2.15;;
39256;SDS011;67272;48.066;11.038;2023-07-13T12:20:00;3.00;;;1.75;;
39256;SDS011;67272;48.066;11.038;2023-07-13T12:22:26;1.63;;;1.52;;
39256;SDS011;67272;48.066;11.038;2023-07-13T12:24:53;2.28;;;1.58;;
39256;SDS011;67272;48.066;11.038;2023-07-13T12:27:21;2.53;;;1.75;;
39256;SDS011;67272;48.066;11.038;2023-07-13T12:29:51;2.35;;;1.42;;
39256;SDS011;67272;48.066;11.038;2023-07-13T12:32:19;2.00;;;1.60;;
39256;SDS011;67272;48.066;11.038;2023-07-13T12:34:52;2.20;;;1.70;;
39256;SDS011;67272;48.066;11.038;2023-07-13T12:37:18;2.43;;;1.50;;
39256;SDS011;67272;48.066;11.038;2023-07-13T12:39:46;2.15;;;1.70;;
39256;SDS011;67272;48.066;11.038;2023-07-13T12:44:40;2.42;;;1.60;;
39256;SDS011;67272;48.066;11.038;2023-07-13T12:47:09;1.77;;;1.63;;
39256;SDS011;67272;48.066;11.038;2023-07-13T12:49:40;2.22;;;1.65;;
39256;SDS011;67272;48.066;11.038;2023-07-13T12:52:15;2.63;;;2.10;;
39256;SDS011;67272;48.066;11.038;2023-07-13T12:54:41;2.05;;;1.70;;
39256;SDS011;67272;48.066;11.038;2023-07-13T12:57:08;2.13;;;1.60;;
39256;SDS011;67272;48.066;11.038;2023-07-13T12:59:39;2.85;;;1.50;;
39256;SDS011;67272;48.066;11.038;2023-07-13T13:02:40;2.70;;;2.05;;
39256;SDS011;67272;48.066;11.038;2023-07-13T13:05:00;2.00;;;1.60;;
39256;SDS011;67272;48.066;11.038;2023-07-13T13:07:26;2.65;;;1.50;;
39256;SDS011;67272;48.066;11.038;2023-07-13T13:09:52;2.70;;;1.92;;
39256;SDS011;67272;48.066;11.038;2023-07-13T13:12:19;4.05;;;1.70;;
39256;SDS011;67272;48.066;11.038;2023-07-13T13:14:45;3.17;;;1.77;;
39256;SDS011;67272;48.066;11.038;2023-07-13T13:17:20;1.70;;;1.60;;
39256;SDS011;67272;48.066;11.038;2023-07-13T13:19:49;2.35;;;1.55;;
39256;SDS011;67272;48.066;11.038;2023-07-13T13:22:15;3.70;;;1.63;;
39256;SDS011;67272;48.066;11.038;2023-07-13T13:24:41;1.67;;;1.58;;
39256;SDS011;67272;48.066;11.038;2023-07-13T13:27:12;2.88;;;1.85;;
39256;SDS011;67272;48.066;11.038;2023-07-13T13:29:39;3.20;;;1.88;;
39256;SDS011;67272;48.066;11.038;2023-07-13T13:32:09;1.88;;;1.75;;
39256;SDS011;67272;48.066;11.038;2023-07-13T13:34:35;2.10;;;1.65;;
39256;SDS011;67272;48.066;11.038;2023-07-13T13:37:01;2.47;;;1.80;;
39256;SDS011;67272;48.066;11.038;2023-07-13T13:39:29;1.88;;;1.70;;
39256;SDS011;67272;48.066;11.038;2023-07-13T13:41:57;2.28;;;2.00;;
39256;SDS011;67272;48.066;11.038;2023-07-13T13:44:23;2.17;;;1.90;;
39256;SDS011;67272;48.066;11.038;2023-07-13T13:46:51;2.35;;;2.15;;
39256;SDS011;67272;48.066;11.038;2023-07-13T13:49:19;3.35;;;2.03;;
39256;SDS011;67272;48.066;11.038;2023-07-13T13:51:45;2.78;;;2.05;;
39256;SDS011;67272;48.066;11.038;2023-07-13T13:54:15;2.35;;;2.13;;
39256;SDS011;67272;48.066;11.038;2023-07-13T13:56:42;5.10;;;1.95;;
39256;SDS011;67272;48.066;11.038;2023-07-13T13:59:08;5.88;;;2.30;;
39256;SDS011;67272;48.066;11.038;2023-07-13T14:01:34;2.35;;;1.90;;
39256;SDS011;67272;48.066;11.038;2023-07-13T14:04:01;2.85;;;1.70;;
39256;SDS011;67272;48.066;11.038;2023-07-13T14:06:27;4.22;;;1.90;;
39256;SDS011;67272;48.066;11.038;2023-07-13T14:08:54;3.05;;;2.05;;
39256;SDS011;67272;48.066;11.038;2023-07-13T14:11:21;2.15;;;1.70;;
39256;SDS011;67272;48.066;11.038;2023-07-13T14:13:51;2.10;;;1.90;;
39256;SDS011;67272;48.066;11.038;2023-07-13T14:16:19;2.08;;;1.58;;
39256;SDS011;67272;48.066;11.038;2023-07-13T14:18:46;1.90;;;1.70;;
39256;SDS011;67272;48.066;11.038;2023-07-13T14:21:17;3.25;;;1.63;;
39256;SDS011;67272;48.066;11.038;2023-07-13T14:23:47;2.50;;;2.03;;
39256;SDS011;67272;48.066;11.038;2023-07-13T14:26:18;2.90;;;1.88;;
39256;SDS011;67272;48.066;11.038;2023-07-13T14:28:46;2.80;;;2.00;;
39256;SDS011;67272;48.066;11.038;2023-07-13T14:31:16;12.55;;;2.92;;
39256;SDS011;67272;48.066;11.038;2023-07-13T14:33:44;6.60;;;2.28;;
39256;SDS011;67272;48.066;11.038;2023-07-13T14:36:30;2.15;;;1.70;;
39256;SDS011;67272;48.066;11.038;2023-07-13T14:38:57;2.13;;;1.85;;
39256;SDS011;67272;48.066;11.038;2023-07-13T14:41:24;4.00;;;1.95;;
39256;SDS011;67272;48.066;11.038;2023-07-13T14:43:51;2.92;;;2.05;;
39256;SDS011;67272;48.066;11.038;2023-07-13T14:49:24;3.42;;;1.98;;
39256;SDS011;67272;48.066;11.038;2023-07-13T14:51:51;1.95;;;1.70;;
39256;SDS011;67272;48.066;11.038;2023-07-13T14:54:17;3.13;;;1.92;;
39256;SDS011;67272;48.066;11.038;2023-07-13T14:56:47;5.03;;;2.15;;
39256;SDS011;67272;48.066;11.038;2023-07-13T14:59:16;3.22;;;1.83;;
39256;SDS011;67272;48.066;11.038;2023-07-13T15:01:49;4.45;;;2.22;;
39256;SDS011;67272;48.066;11.038;2023-07-13T15:04:16;3.08;;;1.90;;
39256;SDS011;67272;48.066;11.038;2023-07-13T15:06:57;2.38;;;2.13;;
39256;SDS011;67272;48.066;11.038;2023-07-13T15:09:25;2.10;;;1.90;;
39256;SDS011;67272;48.066;11.038;2023-07-13T15:11:55;2.35;;;1.83;;
39256;SDS011;67272;48.066;11.038;2023-07-13T15:14:22;1.83;;;1.65;;
39256;SDS011;67272;48.066;11.038;2023-07-13T15:16:51;3.72;;;2.00;;
39256;SDS011;67272;48.066;11.038;2023-07-13T15:19:18;2.85;;;1.83;;
39256;SDS011;67272;48.066;11.038;2023-07-13T15:21:48;2.15;;;1.95;;
39256;SDS011;67272;48.066;11.038;2023-07-13T15:24:15;2.28;;;1.60;;
39256;SDS011;67272;48.066;11.038;2023-07-13T15:26:42;2.63;;;1.80;;
39256;SDS011;67272;48.066;11.038;2023-07-13T15:29:14;2.63;;;2.10;;
39256;SDS011;67272;48.066;11.038;2023-07-13T15:31:40;1.85;;;1.70;;